createdAt,value
2023-01-13T00:00:27.153Z,6.70
2023-01-13T00:03:12.022Z,7.50
2023-01-13T00:05:44.020Z,7.30
2023-01-13T00:08:15.878Z,7.40
2023-01-13T00:10:50.297Z,7.60
2023-01-13T00:13:27.071Z,7.70
2023-01-13T00:16:04.063Z,7.30
2023-01-13T00:18:37.690Z,7.00
2023-01-13T00:21:13.764Z,7.30
2023-01-13T00:23:45.931Z,6.60
2023-01-13T00:26:22.199Z,6.70
2023-01-13T00:28:58.210Z,7.00
2023-01-13T00:31:31.924Z,6.20
2023-01-13T00:34:04.999Z,6.30
2023-01-13T00:36:38.053Z,6.40
2023-01-13T00:39:12.661Z,6.30
2023-01-13T00:44:32.485Z,6.60
2023-01-13T00:47:04.697Z,6.10
2023-01-13T00:49:36.252Z,6.10
2023-01-13T00:52:11.456Z,5.40
2023-01-13T00:54:46.730Z,5.80
2023-01-13T00:57:19.331Z,5.70
2023-01-13T00:59:51.451Z,6.00
2023-01-13T01:02:24.929Z,5.30
2023-01-13T01:04:57.659Z,6.20
2023-01-13T01:07:29.909Z,6.10
2023-01-13T01:10:02.309Z,5.80
2023-01-13T01:12:34.507Z,5.70
2023-01-13T01:15:09.945Z,6.40
2023-01-13T01:17:42.239Z,5.60
2023-01-13T01:20:16.358Z,5.50
2023-01-13T01:22:48.519Z,5.50
2023-01-13T01:25:21.037Z,5.60
2023-01-13T01:27:55.941Z,5.50
2023-01-13T01:30:28.740Z,5.70
2023-01-13T01:33:00.825Z,5.30
2023-01-13T01:35:37.435Z,5.90
2023-01-13T01:38:09.688Z,5.70
2023-01-13T01:40:41.981Z,5.80
2023-01-13T01:43:42.108Z,5.70
2023-01-13T01:46:18.691Z,5.20
2023-01-13T01:49:07.289Z,5.70
2023-01-13T01:51:43.814Z,5.20
2023-01-13T01:54:24.274Z,5.50
2023-01-13T01:56:58.029Z,6.40
2023-01-13T01:59:33.500Z,5.70
2023-01-13T02:02:05.567Z,5.40
2023-01-13T02:04:40.904Z,5.30
2023-01-13T02:07:12.865Z,5.20
2023-01-13T02:09:44.639Z,4.60
2023-01-13T02:12:32.747Z,5.70
2023-01-13T02:15:08.882Z,4.60
2023-01-13T02:17:57.777Z,5.60
2023-01-13T02:20:54.076Z,4.80
2023-01-13T02:24:12.163Z,5.60
2023-01-13T02:27:07.304Z,5.30
2023-01-13T02:30:26.669Z,5.00
2023-01-13T02:33:12.700Z,5.10
2023-01-13T02:35:52.427Z,5.40
2023-01-13T02:38:30.511Z,5.00
2023-01-13T02:41:20.830Z,5.10
2023-01-13T02:44:11.116Z,5.20
2023-01-13T02:47:00.654Z,5.00
2023-01-13T02:49:37.637Z,5.20
2023-01-13T02:52:15.784Z,4.10
2023-01-13T02:54:52.871Z,4.50
2023-01-13T02:57:27.407Z,4.70
2023-01-13T02:59:59.383Z,4.50
2023-01-13T03:02:32.453Z,5.10
2023-01-13T03:05:04.501Z,5.10
2023-01-13T03:08:02.744Z,5.40
2023-01-13T03:10:47.784Z,4.90
2023-01-13T03:14:00.894Z,4.90
2023-01-13T03:16:40.818Z,4.80
2023-01-13T03:19:24.050Z,5.20
2023-01-13T03:22:00.950Z,5.10
2023-01-13T03:24:39.851Z,4.50
2023-01-13T03:27:17.377Z,4.60
2023-01-13T03:29:52.433Z,5.40
2023-01-13T03:32:29.085Z,5.60
2023-01-13T03:35:06.016Z,5.60
2023-01-13T03:37:41.092Z,5.20
2023-01-13T03:40:21.791Z,4.90
2023-01-13T03:43:16.023Z,5.30
2023-01-13T03:45:54.656Z,5.60
2023-01-13T03:48:29.393Z,5.30
2023-01-13T03:53:38.933Z,4.70
2023-01-13T03:56:14.579Z,5.20
2023-01-13T03:58:49.631Z,5.00
2023-01-13T04:01:26.539Z,5.30
2023-01-13T04:04:03.097Z,5.40
2023-01-13T04:06:42.099Z,5.40
2023-01-13T04:09:21.005Z,5.60
2023-01-13T04:11:57.601Z,4.60
2023-01-13T04:14:30.902Z,4.80
2023-01-13T04:17:02.556Z,4.70
2023-01-13T04:19:34.794Z,4.70
2023-01-13T04:22:06.433Z,5.10
2023-01-13T04:24:38.573Z,5.40
2023-01-13T04:27:10.122Z,4.70
2023-01-13T04:29:41.730Z,5.40
2023-01-13T04:32:56.398Z,4.50
2023-01-13T04:36:17.440Z,4.90
2023-01-13T04:38:48.977Z,4.90
2023-01-13T04:41:20.585Z,4.40
2023-01-13T04:43:52.332Z,4.90
2023-01-13T04:46:24.011Z,5.00
2023-01-13T04:48:55.447Z,5.20
2023-01-13T04:51:27.676Z,4.70
2023-01-13T04:53:59.227Z,5.30
2023-01-13T04:56:30.682Z,5.30
2023-01-13T04:59:02.169Z,5.10
2023-01-13T05:01:33.944Z,5.30
2023-01-13T05:04:05.482Z,5.10
2023-01-13T05:06:37.395Z,5.00
2023-01-13T05:09:09.100Z,5.10
2023-01-13T05:11:57.703Z,5.70
2023-01-13T05:14:46.412Z,5.40
2023-01-13T05:17:22.883Z,5.90
2023-01-13T05:19:54.538Z,5.00
2023-01-13T05:22:43.306Z,5.20
2023-01-13T05:25:25.552Z,4.90
2023-01-13T05:27:58.512Z,5.40
2023-01-13T05:30:32.590Z,5.50
2023-01-13T05:33:04.109Z,5.80
2023-01-13T05:35:35.560Z,6.00
2023-01-13T05:38:07.407Z,5.70
2023-01-13T05:40:56.379Z,5.10
2023-01-13T05:43:28.866Z,4.70
2023-01-13T05:46:03.339Z,4.60
2023-01-13T05:48:36.859Z,5.40
2023-01-13T05:51:10.959Z,4.00
2023-01-13T05:53:43.164Z,4.20
2023-01-13T05:56:14.675Z,4.50
2023-01-13T05:58:46.498Z,4.30
2023-01-13T06:01:18.341Z,4.40
2023-01-13T06:03:49.729Z,4.20
2023-01-13T06:06:22.236Z,3.90
2023-01-13T06:08:53.560Z,4.20
2023-01-13T06:11:25.244Z,4.30
2023-01-13T06:13:56.901Z,4.40
2023-01-13T06:16:28.947Z,5.40
2023-01-13T06:19:00.676Z,5.20
2023-01-13T06:21:33.315Z,5.00
2023-01-13T06:24:05.488Z,5.30
2023-01-13T06:26:40.820Z,4.90
2023-01-13T06:29:18.184Z,4.90
2023-01-13T06:31:49.791Z,4.90
2023-01-13T06:34:21.727Z,4.90
2023-01-13T06:36:56.068Z,4.30
2023-01-13T06:39:31.457Z,4.10
2023-01-13T06:42:22.086Z,4.30
2023-01-13T06:44:53.756Z,4.30
2023-01-13T06:47:25.597Z,3.40
2023-01-13T06:49:57.262Z,3.90
2023-01-13T06:52:30.906Z,3.90
2023-01-13T06:55:05.053Z,3.40
2023-01-13T06:57:36.792Z,4.30
2023-01-13T07:00:12.973Z,3.90
2023-01-13T07:02:46.468Z,3.80
2023-01-13T07:05:19.863Z,4.30
2023-01-13T07:07:53.046Z,4.90
2023-01-13T07:10:24.672Z,4.30
2023-01-13T07:13:13.600Z,4.00
2023-01-13T07:15:54.035Z,4.10
2023-01-13T07:18:27.598Z,4.40
2023-01-13T07:21:02.244Z,3.80
2023-01-13T07:23:36.151Z,3.70
2023-01-13T07:26:09.737Z,4.30
2023-01-13T07:28:42.700Z,3.80
2023-01-13T07:31:19.071Z,4.50
2023-01-13T07:33:50.944Z,4.40
2023-01-13T07:36:22.465Z,5.20
2023-01-13T07:38:54.896Z,4.40
2023-01-13T07:41:44.108Z,5.70
2023-01-13T07:44:15.525Z,4.60
2023-01-13T07:46:47.118Z,4.80
2023-01-13T07:49:20.326Z,4.20
2023-01-13T07:51:53.310Z,4.40
2023-01-13T07:54:35.093Z,4.40
2023-01-13T07:57:11.026Z,4.70
2023-01-13T07:59:42.396Z,4.60
2023-01-13T08:02:16.196Z,4.60
2023-01-13T08:04:47.983Z,4.70
2023-01-13T08:07:19.620Z,4.90
2023-01-13T08:09:51.805Z,5.10
2023-01-13T08:12:53.038Z,5.10
2023-01-13T08:15:30.001Z,5.60
2023-01-13T08:18:01.525Z,5.40
2023-01-13T08:20:33.027Z,6.20
2023-01-13T08:23:07.021Z,6.30
2023-01-13T08:25:38.877Z,5.60
2023-01-13T08:28:10.616Z,5.30
2023-01-13T08:30:42.384Z,4.80
2023-01-13T08:33:14.597Z,5.20
2023-01-13T08:35:46.136Z,4.40
2023-01-13T08:38:17.522Z,5.10
2023-01-13T08:40:49.920Z,5.10
2023-01-13T08:43:22.136Z,5.40
2023-01-13T08:46:02.011Z,5.00
2023-01-13T08:48:33.814Z,5.40
2023-01-13T08:51:10.734Z,5.10
2023-01-13T08:53:42.148Z,5.50
2023-01-13T08:56:15.188Z,4.30
2023-01-13T08:58:47.680Z,4.70
2023-01-13T09:01:23.875Z,4.50
2023-01-13T09:03:56.393Z,4.70
2023-01-13T09:06:27.963Z,4.70
2023-01-13T09:08:59.517Z,4.60
2023-01-13T09:11:51.622Z,4.90
2023-01-13T09:14:25.241Z,4.80
2023-01-13T09:16:56.888Z,4.60
2023-01-13T09:19:29.181Z,5.50
2023-01-13T09:22:00.802Z,5.20
2023-01-13T09:24:33.228Z,5.60
2023-01-13T09:27:04.676Z,5.40
2023-01-13T09:29:36.487Z,5.50
2023-01-13T09:32:08.853Z,5.30
2023-01-13T09:34:57.817Z,5.00
2023-01-13T09:37:30.415Z,4.60
2023-01-13T09:40:02.023Z,4.90
2023-01-13T09:42:59.293Z,4.90
2023-01-13T09:45:34.725Z,4.10
2023-01-13T09:48:14.685Z,4.60
2023-01-13T09:50:58.698Z,4.40
2023-01-13T09:53:33.839Z,4.70
2023-01-13T09:56:05.824Z,4.60
2023-01-13T09:58:37.312Z,3.70
2023-01-13T10:01:24.317Z,4.70
2023-01-13T10:03:56.244Z,4.90
2023-01-13T10:06:36.396Z,5.00
2023-01-13T10:09:07.852Z,4.40
2023-01-13T10:12:01.349Z,5.20
2023-01-13T10:14:40.335Z,4.90
2023-01-13T10:17:22.630Z,4.90
2023-01-13T10:19:59.142Z,5.00
2023-01-13T10:22:48.823Z,4.80
2023-01-13T10:25:36.869Z,4.90
2023-01-13T10:28:12.949Z,4.70
2023-01-13T10:30:45.900Z,4.90
2023-01-13T10:33:20.881Z,5.00
2023-01-13T10:36:03.926Z,5.40
2023-01-13T10:38:41.493Z,4.60
2023-01-13T10:41:24.755Z,4.90
2023-01-13T10:44:09.336Z,4.80
2023-01-13T10:46:55.544Z,4.90
2023-01-13T10:49:37.821Z,4.70
2023-01-13T10:52:31.583Z,4.30
2023-01-13T10:55:02.895Z,4.30
2023-01-13T10:57:39.009Z,4.80
2023-01-13T11:00:29.992Z,4.50
2023-01-13T11:03:18.998Z,4.70
2023-01-13T11:05:55.533Z,5.50
2023-01-13T11:08:29.231Z,5.00
2023-01-13T11:11:01.773Z,5.50
2023-01-13T11:13:37.350Z,4.90
2023-01-13T11:16:14.089Z,5.20
2023-01-13T11:19:02.795Z,4.20
2023-01-13T11:21:40.970Z,5.10
2023-01-13T11:24:22.338Z,4.80
2023-01-13T11:27:00.721Z,5.20
2023-01-13T11:29:39.894Z,5.40
2023-01-13T11:32:13.830Z,6.00
2023-01-13T11:34:52.666Z,5.20
2023-01-13T11:37:28.002Z,5.20
2023-01-13T11:40:06.578Z,5.30
2023-01-13T11:42:43.331Z,5.40
2023-01-13T11:45:23.604Z,5.30
2023-01-13T11:47:59.711Z,5.10
2023-01-13T11:50:38.647Z,4.90
2023-01-13T11:53:21.856Z,4.50
2023-01-13T11:56:06.936Z,5.20
2023-01-13T12:01:45.838Z,5.00
2023-01-13T12:04:29.069Z,4.80
2023-01-13T12:07:21.418Z,5.40
2023-01-13T12:10:08.943Z,6.00
2023-01-13T12:12:52.771Z,5.20
2023-01-13T12:15:58.123Z,6.00
2023-01-13T12:18:42.256Z,5.70
2023-01-13T12:21:24.989Z,6.10
2023-01-13T12:24:07.705Z,4.20
2023-01-13T12:26:44.289Z,4.60
2023-01-13T12:29:19.783Z,4.50
2023-01-13T12:31:52.874Z,4.70
2023-01-13T12:34:43.590Z,4.90
2023-01-13T12:37:24.084Z,4.00
2023-01-13T12:40:05.744Z,4.10
2023-01-13T12:43:05.813Z,4.40
2023-01-13T12:45:37.589Z,4.30
2023-01-13T12:48:35.518Z,5.00
2023-01-13T12:51:22.608Z,4.90
2023-01-13T12:53:55.537Z,4.30
2023-01-13T12:56:36.728Z,4.80
2023-01-13T12:59:39.508Z,5.10
2023-01-13T13:02:38.745Z,4.00
2023-01-13T13:05:46.283Z,3.80
2023-01-13T13:08:23.746Z,3.40
2023-01-13T13:11:33.655Z,3.50
2023-01-13T13:14:06.911Z,4.80
2023-01-13T13:16:56.055Z,4.30
2023-01-13T13:19:45.414Z,4.50
2023-01-13T13:22:45.199Z,4.50
2023-01-13T13:25:36.109Z,4.50
2023-01-13T13:28:24.266Z,5.70
2023-01-13T13:31:12.616Z,4.50
2023-01-13T13:33:56.370Z,5.00
2023-01-13T13:37:10.205Z,4.80
2023-01-13T13:40:03.526Z,5.80
2023-01-13T13:43:01.359Z,6.20
2023-01-13T13:45:50.573Z,6.00
2023-01-13T13:48:28.830Z,4.90
2023-01-13T13:51:04.035Z,4.80
2023-01-13T13:53:38.815Z,4.30
2023-01-13T13:58:50.820Z,4.20
2023-01-13T14:01:28.169Z,4.80
2023-01-13T14:04:15.672Z,4.90
2023-01-13T14:07:04.704Z,4.90
2023-01-13T14:09:46.668Z,4.80
2023-01-13T14:12:23.408Z,4.90
2023-01-13T14:14:57.832Z,4.60
2023-01-13T14:17:31.426Z,4.40
2023-01-13T14:20:06.122Z,4.30
2023-01-13T14:25:37.373Z,4.10
2023-01-13T14:28:22.508Z,4.50
2023-01-13T14:33:34.192Z,6.10
2023-01-13T14:36:16.639Z,5.90
2023-01-13T14:38:50.207Z,6.30
2023-01-13T14:41:29.550Z,6.30
2023-01-13T14:44:03.088Z,7.30
2023-01-13T14:46:50.568Z,6.40
2023-01-13T14:49:30.277Z,6.40
2023-01-13T14:52:12.977Z,6.30
2023-01-13T14:54:51.168Z,6.30
2023-01-13T14:57:32.642Z,6.10
2023-01-13T15:00:19.440Z,7.50
2023-01-13T15:03:01.616Z,7.00
2023-01-13T15:05:47.823Z,7.20
2023-01-13T15:08:47.657Z,7.60
2023-01-13T15:11:28.151Z,7.30
2023-01-13T15:14:02.962Z,6.10
2023-01-13T15:19:06.765Z,6.90
2023-01-13T15:21:39.046Z,6.60
2023-01-13T15:24:10.746Z,7.10
2023-01-13T15:26:42.517Z,6.80
2023-01-13T15:29:17.075Z,6.40
2023-01-13T15:31:48.575Z,6.90
2023-01-13T15:34:19.876Z,6.90
2023-01-13T15:36:51.933Z,7.40
2023-01-13T15:39:23.488Z,7.80
2023-01-13T15:42:12.327Z,7.70
2023-01-13T15:45:01.829Z,8.10
2023-01-13T15:47:33.629Z,8.60
2023-01-13T15:50:06.182Z,8.10
2023-01-13T15:52:38.502Z,8.00
2023-01-13T15:55:11.530Z,7.60
2023-01-13T15:57:47.981Z,7.90
2023-01-13T16:00:23.939Z,7.30
2023-01-13T16:02:55.648Z,6.10
2023-01-13T16:05:27.406Z,5.90
2023-01-13T16:07:58.895Z,5.80
2023-01-13T16:10:31.457Z,5.90
2023-01-13T16:13:03.765Z,6.20
2023-01-13T16:15:36.228Z,6.00
2023-01-13T16:18:08.983Z,6.70
2023-01-13T16:20:40.797Z,6.60
2023-01-13T16:23:12.834Z,6.30
2023-01-13T16:25:46.964Z,5.70
2023-01-13T16:28:25.030Z,7.20
2023-01-13T16:30:57.561Z,7.10
2023-01-13T16:33:29.341Z,8.00
2023-01-13T16:36:10.865Z,7.80
2023-01-13T16:38:44.357Z,6.40
2023-01-13T16:41:16.280Z,6.60
2023-01-13T16:43:48.327Z,5.60
2023-01-13T16:46:24.803Z,6.30
2023-01-13T16:48:58.535Z,6.00
2023-01-13T16:51:30.152Z,5.80
2023-01-13T16:54:02.856Z,5.80
2023-01-13T16:56:36.027Z,7.10
2023-01-13T16:59:10.669Z,7.20
2023-01-13T17:01:46.460Z,6.70
2023-01-13T17:04:20.958Z,8.90
2023-01-13T17:07:00.594Z,9.70
2023-01-13T17:09:33.489Z,9.40
2023-01-13T17:12:05.926Z,9.60
2023-01-13T17:14:38.248Z,9.30
2023-01-13T17:17:15.814Z,9.00
2023-01-13T17:19:47.599Z,8.40
2023-01-13T17:22:20.225Z,8.50
2023-01-13T17:24:52.941Z,8.90
2023-01-13T17:27:27.028Z,7.10
2023-01-13T17:29:59.005Z,8.30
2023-01-13T17:32:30.861Z,7.60
2023-01-13T17:35:03.823Z,7.30
2023-01-13T17:37:36.295Z,6.50
2023-01-13T17:40:11.703Z,7.20
2023-01-13T17:43:01.041Z,6.80
2023-01-13T17:45:34.055Z,7.30
2023-01-13T17:48:21.051Z,6.50
2023-01-13T17:50:53.684Z,7.00
2023-01-13T17:53:47.364Z,7.30
2023-01-13T17:56:46.666Z,6.70
2023-01-13T17:59:21.431Z,8.30
2023-01-13T18:04:29.247Z,6.60
2023-01-13T18:07:01.419Z,6.70
2023-01-13T18:09:36.454Z,8.10
2023-01-13T18:12:11.929Z,8.30
2023-01-13T18:14:45.504Z,7.50
2023-01-13T18:17:19.222Z,7.50
2023-01-13T18:20:09.154Z,6.60
2023-01-13T18:22:59.961Z,6.60
2023-01-13T18:25:49.014Z,7.10
2023-01-13T18:28:21.121Z,7.40
2023-01-13T18:30:54.372Z,6.70
2023-01-13T18:33:30.999Z,6.80
2023-01-13T18:36:11.268Z,7.90
2023-01-13T18:38:45.461Z,6.50
2023-01-13T18:41:31.568Z,6.40
2023-01-13T18:44:04.401Z,6.70
2023-01-13T18:46:37.050Z,6.30
2023-01-13T18:49:10.455Z,5.80
2023-01-13T18:51:42.160Z,6.10
2023-01-13T18:54:14.697Z,5.70
2023-01-13T18:56:54.007Z,6.40
2023-01-13T18:59:32.096Z,6.60
2023-01-13T19:02:19.055Z,6.30
2023-01-13T19:04:51.134Z,6.40
2023-01-13T19:07:29.572Z,6.80
2023-01-13T19:10:02.280Z,7.30
2023-01-13T19:12:34.487Z,7.50
2023-01-13T19:15:15.349Z,7.00
2023-01-13T19:17:49.761Z,6.90
2023-01-13T19:20:35.968Z,7.90
2023-01-13T19:23:41.523Z,7.20
2023-01-13T19:26:14.809Z,7.70
2023-01-13T19:32:12.762Z,7.50
2023-01-13T19:32:36.284Z,7.70
2023-01-13T19:34:52.344Z,7.50
2023-01-13T19:37:46.083Z,6.60
2023-01-13T19:40:30.796Z,7.30
2023-01-13T19:43:19.779Z,6.70
2023-01-13T19:45:59.842Z,6.80
2023-01-13T19:48:35.550Z,6.70
2023-01-13T19:51:27.915Z,7.00
2023-01-13T19:54:06.047Z,7.00
2023-01-13T19:56:40.771Z,6.50
2023-01-13T20:01:48.889Z,7.00
2023-01-13T20:04:27.748Z,7.40
2023-01-13T20:07:09.524Z,6.80
2023-01-13T20:09:47.042Z,5.70
2023-01-13T20:12:22.704Z,5.60
2023-01-13T20:14:55.693Z,5.30
2023-01-13T20:17:34.437Z,5.20
2023-01-13T20:20:09.327Z,6.70
2023-01-13T20:22:48.872Z,6.00
2023-01-13T20:25:27.483Z,5.40
2023-01-13T20:28:02.704Z,4.60
2023-01-13T20:30:35.942Z,5.80
2023-01-13T20:33:08.275Z,5.40
2023-01-13T20:35:42.265Z,6.80
2023-01-13T20:38:20.951Z,5.50
2023-01-13T20:41:37.920Z,5.30
2023-01-13T20:44:16.486Z,5.80
2023-01-13T20:47:16.650Z,5.20
2023-01-13T20:49:58.801Z,8.60
2023-01-13T20:52:41.272Z,5.50
2023-01-13T20:55:19.957Z,5.80
2023-01-13T20:58:02.731Z,11.30
2023-01-13T21:00:53.649Z,5.80
2023-01-13T21:03:50.655Z,5.80
2023-01-13T21:06:35.383Z,6.00
2023-01-13T21:09:27.981Z,6.60
2023-01-13T21:12:21.258Z,5.30
2023-01-13T21:15:10.818Z,5.70
2023-01-13T21:18:02.721Z,5.50
2023-01-13T21:20:39.237Z,5.80
2023-01-13T21:23:21.090Z,5.80
2023-01-13T21:25:52.799Z,5.60
2023-01-13T21:28:24.355Z,6.00
2023-01-13T21:30:56.199Z,6.30
2023-01-13T21:33:27.982Z,5.70
2023-01-13T21:35:59.670Z,6.10
2023-01-13T21:38:31.205Z,7.30
2023-01-13T21:41:05.912Z,7.20
2023-01-13T21:46:42.816Z,7.10
2023-01-13T21:49:14.421Z,7.40
2023-01-13T21:51:45.881Z,6.60
2023-01-13T21:54:17.335Z,7.30
2023-01-13T21:56:50.732Z,7.40
2023-01-13T21:59:24.166Z,7.70
2023-01-13T22:02:24.512Z,8.10
2023-01-13T22:04:56.831Z,8.10
2023-01-13T22:07:29.105Z,8.30
2023-01-13T22:10:00.681Z,7.90
2023-01-13T22:12:33.100Z,11.30
2023-01-13T22:15:04.973Z,8.70
2023-01-13T22:17:36.592Z,8.00
2023-01-13T22:20:10.398Z,7.90
2023-01-13T22:22:42.718Z,7.60
2023-01-13T22:25:17.341Z,8.90
2023-01-13T22:27:49.554Z,9.60
2023-01-13T22:30:22.571Z,9.40
2023-01-13T22:32:54.115Z,7.60
2023-01-13T22:35:25.850Z,7.70
2023-01-13T22:37:57.353Z,7.60
2023-01-13T22:40:28.852Z,7.50
2023-01-13T22:43:00.382Z,7.60
2023-01-13T22:45:32.918Z,7.20
2023-01-13T22:48:04.487Z,7.30
2023-01-13T22:50:36.256Z,6.80
2023-01-13T22:53:07.862Z,6.20
2023-01-13T22:55:39.395Z,7.10
2023-01-13T22:58:10.873Z,6.50
2023-01-13T23:00:43.242Z,6.40
2023-01-13T23:03:18.866Z,6.70
2023-01-13T23:05:56.942Z,6.90
2023-01-13T23:08:28.399Z,6.70
2023-01-13T23:11:05.930Z,6.50
2023-01-13T23:13:39.621Z,6.60
2023-01-13T23:16:14.925Z,6.20
2023-01-13T23:18:48.340Z,6.90
2023-01-13T23:21:22.469Z,6.30
2023-01-13T23:23:54.088Z,6.90
2023-01-13T23:26:25.558Z,6.90
2023-01-13T23:28:59.094Z,6.90
2023-01-13T23:31:30.705Z,7.50
2023-01-13T23:34:02.493Z,7.10
2023-01-13T23:36:37.189Z,6.90
2023-01-13T23:39:09.970Z,7.30
2023-01-13T23:41:42.357Z,8.00
2023-01-13T23:44:13.788Z,7.70
2023-01-13T23:46:45.501Z,6.80
2023-01-13T23:49:17.149Z,7.50
2023-01-13T23:51:50.901Z,6.80
2023-01-13T23:54:22.341Z,6.90
2023-01-13T23:56:54.047Z,7.10
2023-01-13T23:59:25.663Z,7.10
